sensor_id;sensor_type;location;lat;lon;timestamp;P1;durP1;ratioP1;P2;durP2;ratioP2
4047;SDS011;2038;51.728;6.674;2023-07-31T00:01:10;3.90;;;3.27;;
4047;SDS011;2038;51.728;6.674;2023-07-31T00:03:36;2.73;;;2.53;;
4047;SDS011;2038;51.728;6.674;2023-07-31T00:06:02;2.97;;;2.43;;
4047;SDS011;2038;51.728;6.674;2023-07-31T00:08:29;2.97;;;2.67;;
4047;SDS011;2038;51.728;6.674;2023-07-31T00:10:55;8.30;;;2.20;;
4047;SDS011;2038;51.728;6.674;2023-07-31T00:13:21;2.67;;;2.30;;
4047;SDS011;2038;51.728;6.674;2023-07-31T00:15:48;3.83;;;2.17;;
4047;SDS011;2038;51.728;6.674;2023-07-31T00:18:14;2.17;;;1.97;;
4047;SDS011;2038;51.728;6.674;2023-07-31T00:20:40;3.30;;;3.00;;
4047;SDS011;2038;51.728;6.674;2023-07-31T00:23:07;2.77;;;2.40;;
4047;SDS011;2038;51.728;6.674;2023-07-31T00:25:33;3.43;;;2.67;;
4047;SDS011;2038;51.728;6.674;2023-07-31T00:27:59;3.73;;;3.00;;
4047;SDS011;2038;51.728;6.674;2023-07-31T00:30:25;4.10;;;3.03;;
4047;SDS011;2038;51.728;6.674;2023-07-31T00:32:52;5.57;;;3.50;;
4047;SDS011;2038;51.728;6.674;2023-07-31T00:35:18;6.20;;;4.93;;
4047;SDS011;2038;51.728;6.674;2023-07-31T00:37:44;8.87;;;5.10;;
4047;SDS011;2038;51.728;6.674;2023-07-31T00:40:10;20.73;;;6.80;;
4047;SDS011;2038;51.728;6.674;2023-07-31T00:42:38;11.00;;;7.37;;
4047;SDS011;2038;51.728;6.674;2023-07-31T00:45:05;13.37;;;7.40;;
4047;SDS011;2038;51.728;6.674;2023-07-31T00:47:31;14.93;;;8.80;;
4047;SDS011;2038;51.728;6.674;2023-07-31T00:49:58;25.83;;;9.97;;
4047;SDS011;2038;51.728;6.674;2023-07-31T00:52:24;19.60;;;9.23;;
4047;SDS011;2038;51.728;6.674;2023-07-31T00:54:50;29.57;;;12.00;;
4047;SDS011;2038;51.728;6.674;2023-07-31T00:57:17;31.30;;;11.47;;
4047;SDS011;2038;51.728;6.674;2023-07-31T00:59:43;29.00;;;11.93;;
4047;SDS011;2038;51.728;6.674;2023-07-31T01:02:11;28.30;;;12.30;;
4047;SDS011;2038;51.728;6.674;2023-07-31T01:04:38;23.60;;;13.20;;
4047;SDS011;2038;51.728;6.674;2023-07-31T01:07:11;29.50;;;13.20;;
4047;SDS011;2038;51.728;6.674;2023-07-31T01:10:11;32.83;;;13.53;;
4047;SDS011;2038;51.728;6.674;2023-07-31T01:12:53;32.43;;;13.00;;
4047;SDS011;2038;51.728;6.674;2023-07-31T01:15:22;27.87;;;13.20;;
4047;SDS011;2038;51.728;6.674;2023-07-31T01:17:49;30.73;;;12.43;;
4047;SDS011;2038;51.728;6.674;2023-07-31T01:20:22;28.33;;;13.60;;
4047;SDS011;2038;51.728;6.674;2023-07-31T01:23:08;26.00;;;12.50;;
4047;SDS011;2038;51.728;6.674;2023-07-31T01:29:03;20.47;;;9.67;;
4047;SDS011;2038;51.728;6.674;2023-07-31T01:31:38;27.50;;;9.73;;
4047;SDS011;2038;51.728;6.674;2023-07-31T01:34:06;24.00;;;10.63;;
4047;SDS011;2038;51.728;6.674;2023-07-31T01:36:36;28.17;;;11.77;;
4047;SDS011;2038;51.728;6.674;2023-07-31T01:39:02;29.17;;;12.17;;
4047;SDS011;2038;51.728;6.674;2023-07-31T01:41:29;28.87;;;11.50;;
4047;SDS011;2038;51.728;6.674;2023-07-31T01:43:55;30.73;;;10.10;;
4047;SDS011;2038;51.728;6.674;2023-07-31T01:46:21;20.00;;;9.30;;
4047;SDS011;2038;51.728;6.674;2023-07-31T01:48:47;25.10;;;9.57;;
4047;SDS011;2038;51.728;6.674;2023-07-31T01:51:14;21.60;;;9.27;;
4047;SDS011;2038;51.728;6.674;2023-07-31T01:53:40;29.03;;;10.33;;
4047;SDS011;2038;51.728;6.674;2023-07-31T01:56:06;21.87;;;9.87;;
4047;SDS011;2038;51.728;6.674;2023-07-31T01:58:32;27.20;;;9.40;;
4047;SDS011;2038;51.728;6.674;2023-07-31T02:00:59;23.40;;;8.20;;
4047;SDS011;2038;51.728;6.674;2023-07-31T02:03:25;20.30;;;9.17;;
4047;SDS011;2038;51.728;6.674;2023-07-31T02:05:51;24.83;;;10.40;;
4047;SDS011;2038;51.728;6.674;2023-07-31T02:08:19;25.73;;;9.37;;
4047;SDS011;2038;51.728;6.674;2023-07-31T02:10:45;14.70;;;8.93;;
4047;SDS011;2038;51.728;6.674;2023-07-31T02:13:11;16.63;;;8.33;;
4047;SDS011;2038;51.728;6.674;2023-07-31T02:15:38;15.00;;;7.10;;
4047;SDS011;2038;51.728;6.674;2023-07-31T02:18:04;21.73;;;8.60;;
4047;SDS011;2038;51.728;6.674;2023-07-31T02:20:33;19.63;;;8.00;;
4047;SDS011;2038;51.728;6.674;2023-07-31T02:23:00;22.33;;;9.27;;
4047;SDS011;2038;51.728;6.674;2023-07-31T02:25:26;14.97;;;7.47;;
4047;SDS011;2038;51.728;6.674;2023-07-31T02:27:53;16.13;;;8.43;;
4047;SDS011;2038;51.728;6.674;2023-07-31T02:30:19;22.77;;;7.53;;
4047;SDS011;2038;51.728;6.674;2023-07-31T02:32:45;21.83;;;8.00;;
4047;SDS011;2038;51.728;6.674;2023-07-31T02:35:11;22.60;;;8.93;;
4047;SDS011;2038;51.728;6.674;2023-07-31T02:37:40;17.30;;;6.70;;
4047;SDS011;2038;51.728;6.674;2023-07-31T02:40:07;15.93;;;8.23;;
4047;SDS011;2038;51.728;6.674;2023-07-31T02:42:34;17.57;;;7.33;;
4047;SDS011;2038;51.728;6.674;2023-07-31T02:45:00;19.63;;;7.90;;
4047;SDS011;2038;51.728;6.674;2023-07-31T02:47:26;20.53;;;8.50;;
4047;SDS011;2038;51.728;6.674;2023-07-31T02:49:52;22.80;;;7.90;;
4047;SDS011;2038;51.728;6.674;2023-07-31T02:52:18;23.63;;;8.63;;
4047;SDS011;2038;51.728;6.674;2023-07-31T02:54:45;30.77;;;9.60;;
4047;SDS011;2038;51.728;6.674;2023-07-31T02:57:11;18.03;;;7.37;;
4047;SDS011;2038;51.728;6.674;2023-07-31T02:59:37;20.63;;;7.30;;
4047;SDS011;2038;51.728;6.674;2023-07-31T03:02:03;18.13;;;7.87;;
4047;SDS011;2038;51.728;6.674;2023-07-31T03:04:30;14.53;;;7.70;;
4047;SDS011;2038;51.728;6.674;2023-07-31T03:06:56;22.40;;;8.07;;
4047;SDS011;2038;51.728;6.674;2023-07-31T03:09:22;20.20;;;7.87;;
4047;SDS011;2038;51.728;6.674;2023-07-31T03:11:48;17.53;;;7.00;;
4047;SDS011;2038;51.728;6.674;2023-07-31T03:14:14;23.13;;;7.63;;
4047;SDS011;2038;51.728;6.674;2023-07-31T03:16:41;23.57;;;8.23;;
4047;SDS011;2038;51.728;6.674;2023-07-31T03:19:07;12.90;;;6.83;;
4047;SDS011;2038;51.728;6.674;2023-07-31T03:21:33;17.50;;;6.87;;
4047;SDS011;2038;51.728;6.674;2023-07-31T03:23:59;22.50;;;9.47;;
4047;SDS011;2038;51.728;6.674;2023-07-31T03:26:25;22.20;;;8.57;;
4047;SDS011;2038;51.728;6.674;2023-07-31T03:28:51;18.23;;;6.80;;
4047;SDS011;2038;51.728;6.674;2023-07-31T03:31:18;14.40;;;7.87;;
4047;SDS011;2038;51.728;6.674;2023-07-31T03:33:44;22.23;;;7.50;;
4047;SDS011;2038;51.728;6.674;2023-07-31T03:36:10;23.97;;;7.27;;
4047;SDS011;2038;51.728;6.674;2023-07-31T03:38:36;22.70;;;8.50;;
4047;SDS011;2038;51.728;6.674;2023-07-31T03:41:02;21.90;;;7.50;;
4047;SDS011;2038;51.728;6.674;2023-07-31T03:43:31;15.10;;;7.60;;
4047;SDS011;2038;51.728;6.674;2023-07-31T03:46:00;15.20;;;7.67;;
4047;SDS011;2038;51.728;6.674;2023-07-31T03:48:27;30.03;;;7.70;;
4047;SDS011;2038;51.728;6.674;2023-07-31T03:50:53;12.50;;;7.00;;
4047;SDS011;2038;51.728;6.674;2023-07-31T03:53:20;27.40;;;9.23;;
4047;SDS011;2038;51.728;6.674;2023-07-31T03:55:46;20.00;;;7.97;;
4047;SDS011;2038;51.728;6.674;2023-07-31T03:58:12;20.97;;;8.50;;
4047;SDS011;2038;51.728;6.674;2023-07-31T04:00:39;27.83;;;8.43;;
4047;SDS011;2038;51.728;6.674;2023-07-31T04:03:06;17.80;;;8.13;;
4047;SDS011;2038;51.728;6.674;2023-07-31T04:05:32;19.07;;;6.83;;
4047;SDS011;2038;51.728;6.674;2023-07-31T04:08:03;26.63;;;10.10;;
4047;SDS011;2038;51.728;6.674;2023-07-31T04:10:29;22.50;;;6.77;;
4047;SDS011;2038;51.728;6.674;2023-07-31T04:12:58;25.17;;;7.53;;
4047;SDS011;2038;51.728;6.674;2023-07-31T04:15:25;21.80;;;7.50;;
4047;SDS011;2038;51.728;6.674;2023-07-31T04:17:51;23.90;;;7.80;;
4047;SDS011;2038;51.728;6.674;2023-07-31T04:20:18;19.73;;;7.40;;
4047;SDS011;2038;51.728;6.674;2023-07-31T04:22:44;11.33;;;6.63;;
4047;SDS011;2038;51.728;6.674;2023-07-31T04:25:10;19.07;;;7.13;;
4047;SDS011;2038;51.728;6.674;2023-07-31T04:27:36;17.53;;;7.30;;
4047;SDS011;2038;51.728;6.674;2023-07-31T04:30:03;20.20;;;7.60;;
4047;SDS011;2038;51.728;6.674;2023-07-31T04:32:30;29.63;;;7.47;;
4047;SDS011;2038;51.728;6.674;2023-07-31T04:34:56;21.13;;;9.17;;
4047;SDS011;2038;51.728;6.674;2023-07-31T04:37:22;19.93;;;7.63;;
4047;SDS011;2038;51.728;6.674;2023-07-31T04:39:48;25.77;;;8.33;;
4047;SDS011;2038;51.728;6.674;2023-07-31T04:42:14;24.07;;;7.67;;
4047;SDS011;2038;51.728;6.674;2023-07-31T04:44:41;26.00;;;10.03;;
4047;SDS011;2038;51.728;6.674;2023-07-31T04:47:07;17.13;;;7.60;;
4047;SDS011;2038;51.728;6.674;2023-07-31T04:49:33;19.90;;;7.00;;
4047;SDS011;2038;51.728;6.674;2023-07-31T04:51:59;31.20;;;7.83;;
4047;SDS011;2038;51.728;6.674;2023-07-31T04:54:25;23.37;;;7.23;;
4047;SDS011;2038;51.728;6.674;2023-07-31T04:56:52;21.77;;;7.30;;
4047;SDS011;2038;51.728;6.674;2023-07-31T04:59:18;13.40;;;6.57;;
4047;SDS011;2038;51.728;6.674;2023-07-31T05:01:44;15.70;;;6.30;;
4047;SDS011;2038;51.728;6.674;2023-07-31T05:04:14;19.07;;;7.00;;
4047;SDS011;2038;51.728;6.674;2023-07-31T05:06:40;12.67;;;6.57;;
4047;SDS011;2038;51.728;6.674;2023-07-31T05:09:07;22.43;;;7.50;;
4047;SDS011;2038;51.728;6.674;2023-07-31T05:11:34;17.90;;;6.10;;
4047;SDS011;2038;51.728;6.674;2023-07-31T05:14:00;15.63;;;7.27;;
4047;SDS011;2038;51.728;6.674;2023-07-31T05:16:27;19.47;;;7.03;;
4047;SDS011;2038;51.728;6.674;2023-07-31T05:18:53;19.70;;;8.37;;
4047;SDS011;2038;51.728;6.674;2023-07-31T05:21:19;25.57;;;8.80;;
4047;SDS011;2038;51.728;6.674;2023-07-31T05:23:45;18.50;;;7.70;;
4047;SDS011;2038;51.728;6.674;2023-07-31T05:26:12;22.87;;;8.07;;
4047;SDS011;2038;51.728;6.674;2023-07-31T05:28:39;16.60;;;7.67;;
4047;SDS011;2038;51.728;6.674;2023-07-31T05:31:05;13.73;;;7.87;;
4047;SDS011;2038;51.728;6.674;2023-07-31T05:33:31;19.13;;;6.90;;
4047;SDS011;2038;51.728;6.674;2023-07-31T05:35:59;16.50;;;7.33;;
4047;SDS011;2038;51.728;6.674;2023-07-31T05:38:25;21.50;;;8.83;;
4047;SDS011;2038;51.728;6.674;2023-07-31T05:40:51;22.00;;;7.70;;
4047;SDS011;2038;51.728;6.674;2023-07-31T05:43:18;17.63;;;7.30;;
4047;SDS011;2038;51.728;6.674;2023-07-31T05:45:44;21.73;;;8.67;;
4047;SDS011;2038;51.728;6.674;2023-07-31T05:48:10;19.87;;;7.30;;
4047;SDS011;2038;51.728;6.674;2023-07-31T05:50:36;16.23;;;7.30;;
4047;SDS011;2038;51.728;6.674;2023-07-31T05:53:04;13.47;;;7.27;;
4047;SDS011;2038;51.728;6.674;2023-07-31T05:55:31;16.13;;;7.67;;
4047;SDS011;2038;51.728;6.674;2023-07-31T05:57:57;14.03;;;7.00;;
4047;SDS011;2038;51.728;6.674;2023-07-31T06:00:24;14.10;;;6.33;;
4047;SDS011;2038;51.728;6.674;2023-07-31T06:02:50;14.23;;;6.63;;
4047;SDS011;2038;51.728;6.674;2023-07-31T06:05:16;15.47;;;7.07;;
4047;SDS011;2038;51.728;6.674;2023-07-31T06:07:42;16.00;;;7.67;;
4047;SDS011;2038;51.728;6.674;2023-07-31T06:10:09;13.63;;;7.90;;
4047;SDS011;2038;51.728;6.674;2023-07-31T06:12:35;17.97;;;8.00;;
4047;SDS011;2038;51.728;6.674;2023-07-31T06:15:02;14.10;;;7.17;;
4047;SDS011;2038;51.728;6.674;2023-07-31T06:17:29;20.97;;;7.40;;
4047;SDS011;2038;51.728;6.674;2023-07-31T06:19:56;14.50;;;7.37;;
4047;SDS011;2038;51.728;6.674;2023-07-31T06:22:22;14.40;;;7.03;;
4047;SDS011;2038;51.728;6.674;2023-07-31T06:24:49;15.30;;;7.00;;
4047;SDS011;2038;51.728;6.674;2023-07-31T06:27:15;13.57;;;7.40;;
4047;SDS011;2038;51.728;6.674;2023-07-31T06:29:41;19.63;;;6.80;;
4047;SDS011;2038;51.728;6.674;2023-07-31T06:32:08;9.90;;;6.53;;
4047;SDS011;2038;51.728;6.674;2023-07-31T06:34:34;14.00;;;7.57;;
4047;SDS011;2038;51.728;6.674;2023-07-31T06:37:00;13.37;;;6.97;;
4047;SDS011;2038;51.728;6.674;2023-07-31T06:39:26;16.53;;;7.50;;
4047;SDS011;2038;51.728;6.674;2023-07-31T06:41:53;14.73;;;6.80;;
4047;SDS011;2038;51.728;6.674;2023-07-31T06:44:19;14.57;;;6.97;;
4047;SDS011;2038;51.728;6.674;2023-07-31T06:46:45;16.23;;;7.03;;
4047;SDS011;2038;51.728;6.674;2023-07-31T06:49:11;14.47;;;7.37;;
4047;SDS011;2038;51.728;6.674;2023-07-31T06:51:40;9.57;;;6.83;;
4047;SDS011;2038;51.728;6.674;2023-07-31T06:54:07;15.23;;;8.07;;
4047;SDS011;2038;51.728;6.674;2023-07-31T06:56:33;13.17;;;7.30;;
4047;SDS011;2038;51.728;6.674;2023-07-31T06:59:00;21.37;;;9.00;;
4047;SDS011;2038;51.728;6.674;2023-07-31T07:01:26;16.40;;;8.30;;
4047;SDS011;2038;51.728;6.674;2023-07-31T07:03:53;14.20;;;8.27;;
4047;SDS011;2038;51.728;6.674;2023-07-31T07:06:20;16.93;;;8.07;;
4047;SDS011;2038;51.728;6.674;2023-07-31T07:08:47;15.50;;;7.97;;
4047;SDS011;2038;51.728;6.674;2023-07-31T07:11:14;17.90;;;8.70;;
4047;SDS011;2038;51.728;6.674;2023-07-31T07:13:40;8.67;;;7.33;;
4047;SDS011;2038;51.728;6.674;2023-07-31T07:16:06;10.00;;;7.03;;
4047;SDS011;2038;51.728;6.674;2023-07-31T07:18:32;10.30;;;6.80;;
4047;SDS011;2038;51.728;6.674;2023-07-31T07:20:59;10.73;;;7.43;;
4047;SDS011;2038;51.728;6.674;2023-07-31T07:23:27;8.00;;;5.50;;
4047;SDS011;2038;51.728;6.674;2023-07-31T07:25:53;7.70;;;6.00;;
4047;SDS011;2038;51.728;6.674;2023-07-31T07:28:19;10.50;;;6.30;;
4047;SDS011;2038;51.728;6.674;2023-07-31T07:30:50;9.37;;;5.70;;
4047;SDS011;2038;51.728;6.674;2023-07-31T07:33:18;11.67;;;6.30;;
4047;SDS011;2038;51.728;6.674;2023-07-31T07:35:44;7.63;;;5.03;;
4047;SDS011;2038;51.728;6.674;2023-07-31T07:38:11;6.70;;;5.70;;
4047;SDS011;2038;51.728;6.674;2023-07-31T07:40:39;7.23;;;5.00;;
4047;SDS011;2038;51.728;6.674;2023-07-31T07:43:06;11.20;;;5.73;;
4047;SDS011;2038;51.728;6.674;2023-07-31T07:45:33;8.67;;;6.10;;
4047;SDS011;2038;51.728;6.674;2023-07-31T07:47:59;9.10;;;5.90;;
4047;SDS011;2038;51.728;6.674;2023-07-31T07:50:25;9.10;;;6.50;;
4047;SDS011;2038;51.728;6.674;2023-07-31T07:52:51;8.70;;;6.07;;
4047;SDS011;2038;51.728;6.674;2023-07-31T07:55:18;9.43;;;6.00;;
4047;SDS011;2038;51.728;6.674;2023-07-31T07:57:44;14.10;;;5.80;;
4047;SDS011;2038;51.728;6.674;2023-07-31T08:00:11;8.30;;;4.53;;
4047;SDS011;2038;51.728;6.674;2023-07-31T08:02:38;6.80;;;5.10;;
4047;SDS011;2038;51.728;6.674;2023-07-31T08:05:04;6.90;;;5.00;;
4047;SDS011;2038;51.728;6.674;2023-07-31T08:07:31;6.40;;;5.40;;
4047;SDS011;2038;51.728;6.674;2023-07-31T08:09:57;5.97;;;3.90;;
4047;SDS011;2038;51.728;6.674;2023-07-31T08:12:23;6.83;;;4.40;;
4047;SDS011;2038;51.728;6.674;2023-07-31T08:14:49;6.80;;;4.80;;
4047;SDS011;2038;51.728;6.674;2023-07-31T08:17:16;7.10;;;5.60;;
4047;SDS011;2038;51.728;6.674;2023-07-31T08:19:42;9.00;;;4.30;;
4047;SDS011;2038;51.728;6.674;2023-07-31T08:22:09;6.40;;;4.33;;
4047;SDS011;2038;51.728;6.674;2023-07-31T08:24:36;9.63;;;4.47;;
4047;SDS011;2038;51.728;6.674;2023-07-31T08:27:02;9.43;;;5.10;;
4047;SDS011;2038;51.728;6.674;2023-07-31T08:29:28;7.60;;;5.27;;
4047;SDS011;2038;51.728;6.674;2023-07-31T08:31:54;7.87;;;5.03;;
4047;SDS011;2038;51.728;6.674;2023-07-31T08:34:21;4.87;;;3.93;;
4047;SDS011;2038;51.728;6.674;2023-07-31T08:36:47;9.20;;;3.83;;
4047;SDS011;2038;51.728;6.674;2023-07-31T08:39:13;7.60;;;4.27;;
4047;SDS011;2038;51.728;6.674;2023-07-31T08:41:39;6.60;;;4.57;;
4047;SDS011;2038;51.728;6.674;2023-07-31T08:44:08;8.90;;;4.93;;
4047;SDS011;2038;51.728;6.674;2023-07-31T08:46:37;8.50;;;4.47;;
4047;SDS011;2038;51.728;6.674;2023-07-31T08:49:04;7.20;;;4.23;;
4047;SDS011;2038;51.728;6.674;2023-07-31T08:51:36;4.77;;;4.13;;
4047;SDS011;2038;51.728;6.674;2023-07-31T08:54:03;9.57;;;4.50;;
4047;SDS011;2038;51.728;6.674;2023-07-31T08:56:30;7.90;;;4.77;;
4047;SDS011;2038;51.728;6.674;2023-07-31T08:58:57;6.50;;;4.50;;
4047;SDS011;2038;51.728;6.674;2023-07-31T09:01:27;5.60;;;4.63;;
4047;SDS011;2038;51.728;6.674;2023-07-31T09:03:55;6.53;;;4.60;;
4047;SDS011;2038;51.728;6.674;2023-07-31T09:06:26;4.63;;;3.90;;
4047;SDS011;2038;51.728;6.674;2023-07-31T09:08:55;8.10;;;4.63;;
4047;SDS011;2038;51.728;6.674;2023-07-31T09:11:22;5.27;;;4.20;;
4047;SDS011;2038;51.728;6.674;2023-07-31T09:13:50;7.57;;;5.23;;
4047;SDS011;2038;51.728;6.674;2023-07-31T09:16:17;7.30;;;4.67;;
4047;SDS011;2038;51.728;6.674;2023-07-31T09:18:56;7.53;;;4.40;;
4047;SDS011;2038;51.728;6.674;2023-07-31T09:21:23;6.63;;;4.30;;
4047;SDS011;2038;51.728;6.674;2023-07-31T09:23:50;7.03;;;5.23;;
4047;SDS011;2038;51.728;6.674;2023-07-31T09:26:35;7.47;;;4.57;;
4047;SDS011;2038;51.728;6.674;2023-07-31T09:29:06;5.77;;;4.30;;
4047;SDS011;2038;51.728;6.674;2023-07-31T09:31:44;5.00;;;4.13;;
4047;SDS011;2038;51.728;6.674;2023-07-31T09:34:11;8.00;;;4.50;;
4047;SDS011;2038;51.728;6.674;2023-07-31T09:36:42;8.70;;;4.50;;
4047;SDS011;2038;51.728;6.674;2023-07-31T09:39:13;10.63;;;4.80;;
4047;SDS011;2038;51.728;6.674;2023-07-31T09:41:46;6.10;;;4.60;;
4047;SDS011;2038;51.728;6.674;2023-07-31T09:44:19;6.90;;;4.60;;
4047;SDS011;2038;51.728;6.674;2023-07-31T09:46:46;5.63;;;4.17;;
4047;SDS011;2038;51.728;6.674;2023-07-31T09:49:13;5.90;;;4.03;;
4047;SDS011;2038;51.728;6.674;2023-07-31T09:51:41;6.50;;;4.57;;
4047;SDS011;2038;51.728;6.674;2023-07-31T09:54:14;6.60;;;4.03;;
4047;SDS011;2038;51.728;6.674;2023-07-31T09:56:48;7.13;;;4.27;;
4047;SDS011;2038;51.728;6.674;2023-07-31T09:59:15;10.47;;;5.07;;
4047;SDS011;2038;51.728;6.674;2023-07-31T10:01:46;5.93;;;4.20;;
4047;SDS011;2038;51.728;6.674;2023-07-31T10:04:14;4.83;;;4.13;;
4047;SDS011;2038;51.728;6.674;2023-07-31T10:06:45;6.33;;;4.40;;
4047;SDS011;2038;51.728;6.674;2023-07-31T10:09:15;5.53;;;4.43;;
4047;SDS011;2038;51.728;6.674;2023-07-31T10:11:47;8.27;;;4.90;;
4047;SDS011;2038;51.728;6.674;2023-07-31T10:14:24;8.53;;;5.40;;
4047;SDS011;2038;51.728;6.674;2023-07-31T10:16:53;7.60;;;4.90;;
4047;SDS011;2038;51.728;6.674;2023-07-31T10:19:20;6.50;;;5.10;;
4047;SDS011;2038;51.728;6.674;2023-07-31T10:21:48;9.13;;;4.87;;
4047;SDS011;2038;51.728;6.674;2023-07-31T10:24:15;7.70;;;5.17;;
4047;SDS011;2038;51.728;6.674;2023-07-31T10:26:42;8.80;;;6.53;;
4047;SDS011;2038;51.728;6.674;2023-07-31T10:29:11;7.60;;;5.50;;
4047;SDS011;2038;51.728;6.674;2023-07-31T10:31:40;9.20;;;6.20;;
4047;SDS011;2038;51.728;6.674;2023-07-31T10:34:07;10.43;;;7.23;;
4047;SDS011;2038;51.728;6.674;2023-07-31T10:36:33;8.77;;;6.33;;
4047;SDS011;2038;51.728;6.674;2023-07-31T10:39:00;9.73;;;6.10;;
4047;SDS011;2038;51.728;6.674;2023-07-31T10:41:29;11.13;;;6.57;;
4047;SDS011;2038;51.728;6.674;2023-07-31T10:43:57;9.40;;;6.77;;
4047;SDS011;2038;51.728;6.674;2023-07-31T10:46:25;12.57;;;7.50;;
4047;SDS011;2038;51.728;6.674;2023-07-31T10:49:01;14.00;;;7.73;;
4047;SDS011;2038;51.728;6.674;2023-07-31T10:51:34;9.70;;;6.53;;
4047;SDS011;2038;51.728;6.674;2023-07-31T10:54:11;10.90;;;7.80;;
4047;SDS011;2038;51.728;6.674;2023-07-31T10:56:40;15.10;;;8.27;;
4047;SDS011;2038;51.728;6.674;2023-07-31T10:59:10;13.90;;;7.80;;
4047;SDS011;2038;51.728;6.674;2023-07-31T11:04:22;12.90;;;8.53;;
4047;SDS011;2038;51.728;6.674;2023-07-31T11:06:56;12.10;;;8.47;;
4047;SDS011;2038;51.728;6.674;2023-07-31T11:09:26;10.20;;;7.67;;
4047;SDS011;2038;51.728;6.674;2023-07-31T11:11:58;11.17;;;8.37;;
4047;SDS011;2038;51.728;6.674;2023-07-31T11:14:24;13.70;;;7.83;;
4047;SDS011;2038;51.728;6.674;2023-07-31T11:16:51;14.47;;;7.97;;
4047;SDS011;2038;51.728;6.674;2023-07-31T11:19:21;14.53;;;7.60;;
4047;SDS011;2038;51.728;6.674;2023-07-31T11:21:49;10.10;;;7.17;;
4047;SDS011;2038;51.728;6.674;2023-07-31T11:24:18;9.07;;;5.83;;
4047;SDS011;2038;51.728;6.674;2023-07-31T11:26:51;7.47;;;6.43;;
4047;SDS011;2038;51.728;6.674;2023-07-31T11:29:18;8.20;;;5.80;;
4047;SDS011;2038;51.728;6.674;2023-07-31T11:31:46;9.17;;;6.43;;
4047;SDS011;2038;51.728;6.674;2023-07-31T11:34:14;9.60;;;5.93;;
4047;SDS011;2038;51.728;6.674;2023-07-31T11:36:40;10.30;;;5.60;;
4047;SDS011;2038;51.728;6.674;2023-07-31T11:39:17;13.63;;;6.03;;
4047;SDS011;2038;51.728;6.674;2023-07-31T11:41:44;8.57;;;5.97;;
4047;SDS011;2038;51.728;6.674;2023-07-31T11:44:10;7.77;;;5.10;;
4047;SDS011;2038;51.728;6.674;2023-07-31T11:46:36;8.20;;;5.50;;
4047;SDS011;2038;51.728;6.674;2023-07-31T11:49:04;9.60;;;6.33;;
4047;SDS011;2038;51.728;6.674;2023-07-31T11:51:30;7.43;;;4.77;;
4047;SDS011;2038;51.728;6.674;2023-07-31T11:53:57;8.33;;;5.73;;
4047;SDS011;2038;51.728;6.674;2023-07-31T11:56:26;12.77;;;5.40;;
4047;SDS011;2038;51.728;6.674;2023-07-31T11:58:55;8.87;;;5.50;;
4047;SDS011;2038;51.728;6.674;2023-07-31T12:01:27;9.93;;;5.27;;
4047;SDS011;2038;51.728;6.674;2023-07-31T12:03:55;6.73;;;5.67;;
4047;SDS011;2038;51.728;6.674;2023-07-31T12:06:32;9.57;;;5.73;;
4047;SDS011;2038;51.728;6.674;2023-07-31T12:09:05;7.00;;;5.30;;
4047;SDS011;2038;51.728;6.674;2023-07-31T12:11:31;8.20;;;5.93;;
4047;SDS011;2038;51.728;6.674;2023-07-31T12:16:58;8.00;;;4.90;;
4047;SDS011;2038;51.728;6.674;2023-07-31T12:19:29;8.10;;;5.07;;
4047;SDS011;2038;51.728;6.674;2023-07-31T12:21:56;9.00;;;4.70;;
4047;SDS011;2038;51.728;6.674;2023-07-31T12:24:35;9.00;;;5.00;;
4047;SDS011;2038;51.728;6.674;2023-07-31T12:27:08;8.47;;;6.30;;
4047;SDS011;2038;51.728;6.674;2023-07-31T12:29:39;8.40;;;5.40;;
4047;SDS011;2038;51.728;6.674;2023-07-31T12:32:19;6.70;;;4.57;;
4047;SDS011;2038;51.728;6.674;2023-07-31T12:34:54;9.23;;;4.90;;
4047;SDS011;2038;51.728;6.674;2023-07-31T12:37:24;7.13;;;5.17;;
4047;SDS011;2038;51.728;6.674;2023-07-31T12:39:51;11.87;;;5.50;;
4047;SDS011;2038;51.728;6.674;2023-07-31T12:42:17;6.57;;;4.93;;
4047;SDS011;2038;51.728;6.674;2023-07-31T12:44:43;5.57;;;4.53;;
4047;SDS011;2038;51.728;6.674;2023-07-31T12:47:10;7.57;;;4.93;;
4047;SDS011;2038;51.728;6.674;2023-07-31T12:49:36;6.20;;;4.70;;
4047;SDS011;2038;51.728;6.674;2023-07-31T12:52:02;5.60;;;4.33;;
4047;SDS011;2038;51.728;6.674;2023-07-31T12:54:29;7.80;;;5.60;;
4047;SDS011;2038;51.728;6.674;2023-07-31T12:56:55;5.10;;;4.20;;
4047;SDS011;2038;51.728;6.674;2023-07-31T12:59:21;5.37;;;3.70;;
4047;SDS011;2038;51.728;6.674;2023-07-31T13:01:47;5.80;;;4.73;;
4047;SDS011;2038;51.728;6.674;2023-07-31T13:04:14;5.80;;;4.30;;
4047;SDS011;2038;51.728;6.674;2023-07-31T13:06:41;5.27;;;4.23;;
4047;SDS011;2038;51.728;6.674;2023-07-31T13:09:07;8.10;;;5.13;;
4047;SDS011;2038;51.728;6.674;2023-07-31T13:11:34;5.97;;;4.90;;
4047;SDS011;2038;51.728;6.674;2023-07-31T13:14:00;4.53;;;3.33;;
4047;SDS011;2038;51.728;6.674;2023-07-31T13:16:26;10.90;;;5.10;;
4047;SDS011;2038;51.728;6.674;2023-07-31T13:18:53;6.47;;;4.40;;
4047;SDS011;2038;51.728;6.674;2023-07-31T13:21:19;6.63;;;4.80;;
4047;SDS011;2038;51.728;6.674;2023-07-31T13:23:47;6.10;;;3.60;;
4047;SDS011;2038;51.728;6.674;2023-07-31T13:26:13;6.40;;;4.27;;
4047;SDS011;2038;51.728;6.674;2023-07-31T13:28:39;8.53;;;4.80;;
4047;SDS011;2038;51.728;6.674;2023-07-31T13:31:05;5.87;;;4.70;;
4047;SDS011;2038;51.728;6.674;2023-07-31T13:33:31;9.60;;;4.80;;
4047;SDS011;2038;51.728;6.674;2023-07-31T13:35:58;5.77;;;4.27;;
4047;SDS011;2038;51.728;6.674;2023-07-31T13:38:24;11.03;;;5.70;;
4047;SDS011;2038;51.728;6.674;2023-07-31T13:40:50;8.10;;;4.87;;
4047;SDS011;2038;51.728;6.674;2023-07-31T13:43:16;8.10;;;4.67;;
4047;SDS011;2038;51.728;6.674;2023-07-31T13:45:43;9.13;;;5.13;;
4047;SDS011;2038;51.728;6.674;2023-07-31T13:48:09;6.43;;;4.40;;
4047;SDS011;2038;51.728;6.674;2023-07-31T13:50:35;6.53;;;5.13;;
4047;SDS011;2038;51.728;6.674;2023-07-31T13:53:01;6.07;;;4.80;;
4047;SDS011;2038;51.728;6.674;2023-07-31T13:55:27;7.80;;;6.00;;
4047;SDS011;2038;51.728;6.674;2023-07-31T13:57:54;8.00;;;5.70;;
4047;SDS011;2038;51.728;6.674;2023-07-31T14:00:20;7.53;;;5.30;;
4047;SDS011;2038;51.728;6.674;2023-07-31T14:02:47;13.83;;;6.07;;
4047;SDS011;2038;51.728;6.674;2023-07-31T14:05:13;7.17;;;5.53;;
4047;SDS011;2038;51.728;6.674;2023-07-31T14:07:39;11.80;;;6.40;;
4047;SDS011;2038;51.728;6.674;2023-07-31T14:10:05;6.33;;;5.23;;
4047;SDS011;2038;51.728;6.674;2023-07-31T14:12:32;8.97;;;5.73;;
4047;SDS011;2038;51.728;6.674;2023-07-31T14:14:58;9.73;;;7.63;;
4047;SDS011;2038;51.728;6.674;2023-07-31T14:17:24;11.07;;;5.90;;
4047;SDS011;2038;51.728;6.674;2023-07-31T14:19:50;13.30;;;6.40;;
4047;SDS011;2038;51.728;6.674;2023-07-31T14:22:26;11.27;;;6.40;;
4047;SDS011;2038;51.728;6.674;2023-07-31T14:24:58;10.70;;;6.47;;
4047;SDS011;2038;51.728;6.674;2023-07-31T14:27:25;10.63;;;6.97;;
4047;SDS011;2038;51.728;6.674;2023-07-31T14:29:51;11.77;;;5.87;;
4047;SDS011;2038;51.728;6.674;2023-07-31T14:32:17;11.30;;;6.87;;
4047;SDS011;2038;51.728;6.674;2023-07-31T14:34:43;13.93;;;7.27;;
4047;SDS011;2038;51.728;6.674;2023-07-31T14:37:09;12.80;;;6.93;;
4047;SDS011;2038;51.728;6.674;2023-07-31T14:39:36;8.60;;;6.00;;
4047;SDS011;2038;51.728;6.674;2023-07-31T14:42:02;13.80;;;6.87;;
4047;SDS011;2038;51.728;6.674;2023-07-31T14:44:28;8.57;;;6.17;;
4047;SDS011;2038;51.728;6.674;2023-07-31T14:46:54;14.33;;;6.70;;
4047;SDS011;2038;51.728;6.674;2023-07-31T14:49:20;8.13;;;6.33;;
4047;SDS011;2038;51.728;6.674;2023-07-31T14:51:47;8.80;;;6.67;;
4047;SDS011;2038;51.728;6.674;2023-07-31T14:54:13;12.40;;;6.57;;
4047;SDS011;2038;51.728;6.674;2023-07-31T14:56:39;14.53;;;6.53;;
4047;SDS011;2038;51.728;6.674;2023-07-31T14:59:05;9.33;;;6.77;;
4047;SDS011;2038;51.728;6.674;2023-07-31T15:01:33;10.90;;;7.20;;
4047;SDS011;2038;51.728;6.674;2023-07-31T15:03:59;13.70;;;7.60;;
4047;SDS011;2038;51.728;6.674;2023-07-31T15:06:25;10.03;;;7.30;;
4047;SDS011;2038;51.728;6.674;2023-07-31T15:08:51;12.00;;;8.00;;
4047;SDS011;2038;51.728;6.674;2023-07-31T15:11:17;14.30;;;8.87;;
4047;SDS011;2038;51.728;6.674;2023-07-31T15:13:44;13.03;;;8.10;;
4047;SDS011;2038;51.728;6.674;2023-07-31T15:16:10;9.57;;;7.90;;
4047;SDS011;2038;51.728;6.674;2023-07-31T15:18:36;10.37;;;7.63;;